sensor_id;sensor_type;location;lat;lon;timestamp;temperature;humidity
15450;DHT22;7826;49.784;9.934;2022-08-21T00:01:09;17.00;99.90
15450;DHT22;7826;49.784;9.934;2022-08-21T00:03:36;17.00;99.90
15450;DHT22;7826;49.784;9.934;2022-08-21T00:06:02;17.00;99.90
15450;DHT22;7826;49.784;9.934;2022-08-21T00:08:29;16.90;99.90
15450;DHT22;7826;49.784;9.934;2022-08-21T00:10:55;17.00;99.90
15450;DHT22;7826;49.784;9.934;2022-08-21T00:13:21;17.00;99.90
15450;DHT22;7826;49.784;9.934;2022-08-21T00:15:49;16.90;99.90
15450;DHT22;7826;49.784;9.934;2022-08-21T00:18:17;16.90;99.90
15450;DHT22;7826;49.784;9.934;2022-08-21T00:20:44;16.80;99.90
15450;DHT22;7826;49.784;9.934;2022-08-21T00:23:12;16.80;99.90
15450;DHT22;7826;49.784;9.934;2022-08-21T00:25:39;16.80;99.90
15450;DHT22;7826;49.784;9.934;2022-08-21T00:28:05;16.70;99.90
15450;DHT22;7826;49.784;9.934;2022-08-21T00:30:32;16.70;99.90
15450;DHT22;7826;49.784;9.934;2022-08-21T00:33:00;16.80;99.90
15450;DHT22;7826;49.784;9.934;2022-08-21T00:35:30;16.80;99.90
15450;DHT22;7826;49.784;9.934;2022-08-21T00:37:57;16.80;99.90
15450;DHT22;7826;49.784;9.934;2022-08-21T00:40:28;16.80;99.90
15450;DHT22;7826;49.784;9.934;2022-08-21T00:42:55;16.70;99.90
15450;DHT22;7826;49.784;9.934;2022-08-21T00:45:22;16.70;99.90
15450;DHT22;7826;49.784;9.934;2022-08-21T00:47:50;16.60;99.90
15450;DHT22;7826;49.784;9.934;2022-08-21T00:50:18;16.60;99.90
15450;DHT22;7826;49.784;9.934;2022-08-21T00:52:46;16.50;99.90
15450;DHT22;7826;49.784;9.934;2022-08-21T00:55:13;16.50;99.90
15450;DHT22;7826;49.784;9.934;2022-08-21T00:57:47;16.50;99.90
15450;DHT22;7826;49.784;9.934;2022-08-21T01:00:25;16.50;99.90
15450;DHT22;7826;49.784;9.934;2022-08-21T01:02:57;16.40;99.90
15450;DHT22;7826;49.784;9.934;2022-08-21T01:05:25;16.40;99.90
15450;DHT22;7826;49.784;9.934;2022-08-21T01:07:54;16.40;99.90
15450;DHT22;7826;49.784;9.934;2022-08-21T01:10:23;16.40;99.90
15450;DHT22;7826;49.784;9.934;2022-08-21T01:12:51;16.40;99.90
15450;DHT22;7826;49.784;9.934;2022-08-21T01:15:19;16.40;99.90
15450;DHT22;7826;49.784;9.934;2022-08-21T01:17:47;16.40;99.90
15450;DHT22;7826;49.784;9.934;2022-08-21T01:20:15;16.40;99.90
15450;DHT22;7826;49.784;9.934;2022-08-21T01:22:42;16.40;99.90
15450;DHT22;7826;49.784;9.934;2022-08-21T01:25:10;16.40;99.90
15450;DHT22;7826;49.784;9.934;2022-08-21T01:27:37;16.40;99.90
15450;DHT22;7826;49.784;9.934;2022-08-21T01:30:22;16.40;99.90
15450;DHT22;7826;49.784;9.934;2022-08-21T01:32:50;16.40;99.90
15450;DHT22;7826;49.784;9.934;2022-08-21T01:35:18;16.30;99.90
15450;DHT22;7826;49.784;9.934;2022-08-21T01:37:46;16.40;99.90
15450;DHT22;7826;49.784;9.934;2022-08-21T01:40:15;16.40;99.90
15450;DHT22;7826;49.784;9.934;2022-08-21T01:42:45;16.30;99.90
15450;DHT22;7826;49.784;9.934;2022-08-21T01:45:12;16.20;99.90
15450;DHT22;7826;49.784;9.934;2022-08-21T01:47:39;16.20;99.90
15450;DHT22;7826;49.784;9.934;2022-08-21T01:50:08;16.10;99.90
15450;DHT22;7826;49.784;9.934;2022-08-21T01:52:35;16.10;99.90
15450;DHT22;7826;49.784;9.934;2022-08-21T01:55:03;16.10;99.90
15450;DHT22;7826;49.784;9.934;2022-08-21T01:57:30;16.00;99.90
15450;DHT22;7826;49.784;9.934;2022-08-21T01:59:56;16.00;99.90
15450;DHT22;7826;49.784;9.934;2022-08-21T02:02:22;15.90;99.90
15450;DHT22;7826;49.784;9.934;2022-08-21T02:04:49;15.90;99.90
15450;DHT22;7826;49.784;9.934;2022-08-21T02:07:15;15.90;99.90
15450;DHT22;7826;49.784;9.934;2022-08-21T02:09:41;15.80;99.90
15450;DHT22;7826;49.784;9.934;2022-08-21T02:12:10;15.80;99.90
15450;DHT22;7826;49.784;9.934;2022-08-21T02:14:36;15.70;99.90
15450;DHT22;7826;49.784;9.934;2022-08-21T02:17:03;15.70;99.90
15450;DHT22;7826;49.784;9.934;2022-08-21T02:19:29;15.70;99.90
15450;DHT22;7826;49.784;9.934;2022-08-21T02:21:56;15.60;99.90
15450;DHT22;7826;49.784;9.934;2022-08-21T02:24:22;15.70;99.90
15450;DHT22;7826;49.784;9.934;2022-08-21T02:26:48;15.70;99.90
15450;DHT22;7826;49.784;9.934;2022-08-21T02:29:15;15.70;99.90
15450;DHT22;7826;49.784;9.934;2022-08-21T02:31:41;15.60;99.90
15450;DHT22;7826;49.784;9.934;2022-08-21T02:34:08;15.60;99.90
15450;DHT22;7826;49.784;9.934;2022-08-21T02:36:35;15.60;99.90
15450;DHT22;7826;49.784;9.934;2022-08-21T02:39:01;15.60;99.90
15450;DHT22;7826;49.784;9.934;2022-08-21T02:41:27;15.50;99.90
15450;DHT22;7826;49.784;9.934;2022-08-21T02:43:53;15.50;99.90
15450;DHT22;7826;49.784;9.934;2022-08-21T02:46:20;15.60;99.90
15450;DHT22;7826;49.784;9.934;2022-08-21T02:48:47;15.50;99.90
15450;DHT22;7826;49.784;9.934;2022-08-21T02:51:17;15.50;99.90
15450;DHT22;7826;49.784;9.934;2022-08-21T02:53:44;15.40;99.90
15450;DHT22;7826;49.784;9.934;2022-08-21T02:56:13;15.40;99.90
15450;DHT22;7826;49.784;9.934;2022-08-21T02:58:44;15.40;99.90
15450;DHT22;7826;49.784;9.934;2022-08-21T03:01:12;15.30;99.90
15450;DHT22;7826;49.784;9.934;2022-08-21T03:03:41;15.20;99.90
15450;DHT22;7826;49.784;9.934;2022-08-21T03:06:10;15.20;99.90
15450;DHT22;7826;49.784;9.934;2022-08-21T03:08:37;15.10;99.90
15450;DHT22;7826;49.784;9.934;2022-08-21T03:11:04;15.10;99.90
15450;DHT22;7826;49.784;9.934;2022-08-21T03:13:31;15.10;99.90
15450;DHT22;7826;49.784;9.934;2022-08-21T03:15:58;15.00;99.90
15450;DHT22;7826;49.784;9.934;2022-08-21T03:18:24;15.00;99.90
15450;DHT22;7826;49.784;9.934;2022-08-21T03:20:51;14.90;99.90
15450;DHT22;7826;49.784;9.934;2022-08-21T03:23:17;14.90;99.90
15450;DHT22;7826;49.784;9.934;2022-08-21T03:25:46;14.80;99.90
15450;DHT22;7826;49.784;9.934;2022-08-21T03:28:15;14.80;99.90
15450;DHT22;7826;49.784;9.934;2022-08-21T03:30:44;14.70;99.90
15450;DHT22;7826;49.784;9.934;2022-08-21T03:33:11;14.70;99.90
15450;DHT22;7826;49.784;9.934;2022-08-21T03:35:38;14.70;99.90
15450;DHT22;7826;49.784;9.934;2022-08-21T03:38:04;14.70;99.90
15450;DHT22;7826;49.784;9.934;2022-08-21T03:40:30;14.70;99.90
15450;DHT22;7826;49.784;9.934;2022-08-21T03:42:57;14.60;99.90
15450;DHT22;7826;49.784;9.934;2022-08-21T03:45:24;14.50;99.90
15450;DHT22;7826;49.784;9.934;2022-08-21T03:47:59;14.50;99.90
15450;DHT22;7826;49.784;9.934;2022-08-21T03:50:30;14.40;99.90
15450;DHT22;7826;49.784;9.934;2022-08-21T03:52:57;14.40;99.90
15450;DHT22;7826;49.784;9.934;2022-08-21T03:55:24;14.30;99.90
15450;DHT22;7826;49.784;9.934;2022-08-21T03:57:51;14.40;99.90
15450;DHT22;7826;49.784;9.934;2022-08-21T04:00:18;14.30;99.90
15450;DHT22;7826;49.784;9.934;2022-08-21T04:02:45;14.20;99.90
15450;DHT22;7826;49.784;9.934;2022-08-21T04:05:14;14.30;99.90
15450;DHT22;7826;49.784;9.934;2022-08-21T04:07:40;14.30;99.90
15450;DHT22;7826;49.784;9.934;2022-08-21T04:10:07;14.30;99.90
15450;DHT22;7826;49.784;9.934;2022-08-21T04:12:33;14.20;99.90
15450;DHT22;7826;49.784;9.934;2022-08-21T04:15:00;14.20;99.90
15450;DHT22;7826;49.784;9.934;2022-08-21T04:17:27;14.20;99.90
15450;DHT22;7826;49.784;9.934;2022-08-21T04:19:53;14.20;99.90
15450;DHT22;7826;49.784;9.934;2022-08-21T04:22:20;14.20;99.90
15450;DHT22;7826;49.784;9.934;2022-08-21T04:24:46;14.20;99.90
15450;DHT22;7826;49.784;9.934;2022-08-21T04:27:13;14.20;99.90
15450;DHT22;7826;49.784;9.934;2022-08-21T04:29:39;14.20;99.90
15450;DHT22;7826;49.784;9.934;2022-08-21T04:32:06;14.20;99.90
15450;DHT22;7826;49.784;9.934;2022-08-21T04:34:32;14.20;99.90
15450;DHT22;7826;49.784;9.934;2022-08-21T04:36:59;14.20;99.90
15450;DHT22;7826;49.784;9.934;2022-08-21T04:39:25;14.20;99.90
15450;DHT22;7826;49.784;9.934;2022-08-21T04:41:51;14.20;99.90
15450;DHT22;7826;49.784;9.934;2022-08-21T04:44:18;14.20;99.90
15450;DHT22;7826;49.784;9.934;2022-08-21T04:46:44;14.10;99.90
15450;DHT22;7826;49.784;9.934;2022-08-21T04:49:10;14.20;99.90
15450;DHT22;7826;49.784;9.934;2022-08-21T04:51:37;14.10;99.90
15450;DHT22;7826;49.784;9.934;2022-08-21T04:54:14;14.10;99.90
15450;DHT22;7826;49.784;9.934;2022-08-21T04:56:47;14.10;99.90
15450;DHT22;7826;49.784;9.934;2022-08-21T04:59:27;14.20;99.90
15450;DHT22;7826;49.784;9.934;2022-08-21T05:01:55;14.30;99.90
15450;DHT22;7826;49.784;9.934;2022-08-21T05:04:25;14.30;99.90
15450;DHT22;7826;49.784;9.934;2022-08-21T05:06:54;14.40;99.90
15450;DHT22;7826;49.784;9.934;2022-08-21T05:09:23;14.40;99.90
15450;DHT22;7826;49.784;9.934;2022-08-21T05:11:50;14.40;99.90
15450;DHT22;7826;49.784;9.934;2022-08-21T05:14:18;14.50;99.90
15450;DHT22;7826;49.784;9.934;2022-08-21T05:16:46;14.70;99.90
15450;DHT22;7826;49.784;9.934;2022-08-21T05:19:12;14.80;99.90
15450;DHT22;7826;49.784;9.934;2022-08-21T05:21:42;15.10;99.90
15450;DHT22;7826;49.784;9.934;2022-08-21T05:24:09;15.20;99.90
15450;DHT22;7826;49.784;9.934;2022-08-21T05:26:36;15.50;99.90
15450;DHT22;7826;49.784;9.934;2022-08-21T05:29:03;15.70;99.90
15450;DHT22;7826;49.784;9.934;2022-08-21T05:31:29;15.90;99.90
15450;DHT22;7826;49.784;9.934;2022-08-21T05:33:56;16.00;99.90
15450;DHT22;7826;49.784;9.934;2022-08-21T05:36:23;16.00;99.90
15450;DHT22;7826;49.784;9.934;2022-08-21T05:38:49;16.20;99.90
15450;DHT22;7826;49.784;9.934;2022-08-21T05:41:16;16.30;99.90
15450;DHT22;7826;49.784;9.934;2022-08-21T05:43:42;16.50;99.90
15450;DHT22;7826;49.784;9.934;2022-08-21T05:46:09;16.50;99.90
15450;DHT22;7826;49.784;9.934;2022-08-21T05:48:36;16.60;99.90
15450;DHT22;7826;49.784;9.934;2022-08-21T05:51:08;16.70;99.90
15450;DHT22;7826;49.784;9.934;2022-08-21T05:53:36;16.70;99.90
15450;DHT22;7826;49.784;9.934;2022-08-21T05:56:03;16.90;99.90
15450;DHT22;7826;49.784;9.934;2022-08-21T05:58:31;17.00;99.90
15450;DHT22;7826;49.784;9.934;2022-08-21T06:00:59;17.20;99.90
15450;DHT22;7826;49.784;9.934;2022-08-21T06:03:28;17.20;99.90
15450;DHT22;7826;49.784;9.934;2022-08-21T06:05:55;17.20;99.90
15450;DHT22;7826;49.784;9.934;2022-08-21T06:08:22;17.30;99.90
15450;DHT22;7826;49.784;9.934;2022-08-21T06:10:50;17.40;99.90
15450;DHT22;7826;49.784;9.934;2022-08-21T06:13:17;17.50;99.90
15450;DHT22;7826;49.784;9.934;2022-08-21T06:15:44;17.60;99.90
15450;DHT22;7826;49.784;9.934;2022-08-21T06:18:11;17.70;99.90
15450;DHT22;7826;49.784;9.934;2022-08-21T06:20:38;18.00;99.90
15450;DHT22;7826;49.784;9.934;2022-08-21T06:23:05;18.10;99.90
15450;DHT22;7826;49.784;9.934;2022-08-21T06:25:31;18.10;99.90
15450;DHT22;7826;49.784;9.934;2022-08-21T06:28:05;17.80;99.90
15450;DHT22;7826;49.784;9.934;2022-08-21T06:30:32;18.10;99.90
15450;DHT22;7826;49.784;9.934;2022-08-21T06:32:58;18.00;99.90
15450;DHT22;7826;49.784;9.934;2022-08-21T06:35:25;18.10;99.90
15450;DHT22;7826;49.784;9.934;2022-08-21T06:37:51;18.20;99.90
15450;DHT22;7826;49.784;9.934;2022-08-21T06:40:18;18.20;99.90
15450;DHT22;7826;49.784;9.934;2022-08-21T06:42:44;18.10;99.90
15450;DHT22;7826;49.784;9.934;2022-08-21T06:45:11;18.20;99.90
15450;DHT22;7826;49.784;9.934;2022-08-21T06:47:37;18.30;99.90
15450;DHT22;7826;49.784;9.934;2022-08-21T06:50:04;18.30;99.90
15450;DHT22;7826;49.784;9.934;2022-08-21T06:52:30;18.40;99.90
15450;DHT22;7826;49.784;9.934;2022-08-21T06:54:57;18.60;99.90
15450;DHT22;7826;49.784;9.934;2022-08-21T06:57:23;18.70;99.90
15450;DHT22;7826;49.784;9.934;2022-08-21T06:59:51;18.60;99.90
15450;DHT22;7826;49.784;9.934;2022-08-21T07:02:17;18.80;99.90
15450;DHT22;7826;49.784;9.934;2022-08-21T07:04:44;18.60;99.90
15450;DHT22;7826;49.784;9.934;2022-08-21T07:07:10;18.10;99.90
15450;DHT22;7826;49.784;9.934;2022-08-21T07:09:36;18.10;99.90
15450;DHT22;7826;49.784;9.934;2022-08-21T07:12:03;18.10;99.90
15450;DHT22;7826;49.784;9.934;2022-08-21T07:14:29;18.30;99.90
15450;DHT22;7826;49.784;9.934;2022-08-21T07:16:56;18.00;99.90
15450;DHT22;7826;49.784;9.934;2022-08-21T07:19:22;18.10;99.90
15450;DHT22;7826;49.784;9.934;2022-08-21T07:21:48;18.30;99.90
15450;DHT22;7826;49.784;9.934;2022-08-21T07:24:15;18.50;99.90
15450;DHT22;7826;49.784;9.934;2022-08-21T07:26:41;18.70;99.90
15450;DHT22;7826;49.784;9.934;2022-08-21T07:29:07;18.80;99.90
15450;DHT22;7826;49.784;9.934;2022-08-21T07:31:34;18.90;99.90
15450;DHT22;7826;49.784;9.934;2022-08-21T07:34:00;19.20;99.90
15450;DHT22;7826;49.784;9.934;2022-08-21T07:36:26;19.40;99.90
15450;DHT22;7826;49.784;9.934;2022-08-21T07:38:53;19.80;99.90
15450;DHT22;7826;49.784;9.934;2022-08-21T07:41:22;20.20;99.90
15450;DHT22;7826;49.784;9.934;2022-08-21T07:43:49;19.90;99.90
15450;DHT22;7826;49.784;9.934;2022-08-21T07:46:15;19.70;99.90
15450;DHT22;7826;49.784;9.934;2022-08-21T07:48:42;20.20;99.90
15450;DHT22;7826;49.784;9.934;2022-08-21T07:51:11;20.50;99.90
15450;DHT22;7826;49.784;9.934;2022-08-21T07:53:38;20.80;99.90
15450;DHT22;7826;49.784;9.934;2022-08-21T07:56:06;21.10;99.90
15450;DHT22;7826;49.784;9.934;2022-08-21T07:58:34;21.50;99.90
15450;DHT22;7826;49.784;9.934;2022-08-21T08:01:00;21.90;99.90
15450;DHT22;7826;49.784;9.934;2022-08-21T08:03:27;22.30;99.90
15450;DHT22;7826;49.784;9.934;2022-08-21T08:05:53;22.60;99.90
15450;DHT22;7826;49.784;9.934;2022-08-21T08:08:19;22.60;99.90
15450;DHT22;7826;49.784;9.934;2022-08-21T08:10:46;22.70;99.90
15450;DHT22;7826;49.784;9.934;2022-08-21T08:13:12;22.30;99.90
15450;DHT22;7826;49.784;9.934;2022-08-21T08:15:39;22.50;99.90
15450;DHT22;7826;49.784;9.934;2022-08-21T08:18:05;23.30;99.90
15450;DHT22;7826;49.784;9.934;2022-08-21T08:20:31;23.60;99.90
15450;DHT22;7826;49.784;9.934;2022-08-21T08:22:58;23.90;99.90
15450;DHT22;7826;49.784;9.934;2022-08-21T08:25:25;24.10;99.90
15450;DHT22;7826;49.784;9.934;2022-08-21T08:27:52;24.20;99.90
15450;DHT22;7826;49.784;9.934;2022-08-21T08:30:19;24.60;99.90
15450;DHT22;7826;49.784;9.934;2022-08-21T08:32:47;24.80;99.90
15450;DHT22;7826;49.784;9.934;2022-08-21T08:35:14;25.00;99.90
15450;DHT22;7826;49.784;9.934;2022-08-21T08:37:41;25.80;99.90
15450;DHT22;7826;49.784;9.934;2022-08-21T08:40:18;26.70;99.90
15450;DHT22;7826;49.784;9.934;2022-08-21T08:42:46;27.50;99.90
15450;DHT22;7826;49.784;9.934;2022-08-21T08:45:18;27.90;99.90
15450;DHT22;7826;49.784;9.934;2022-08-21T08:47:55;28.00;99.90
15450;DHT22;7826;49.784;9.934;2022-08-21T08:50:55;28.70;99.90
15450;DHT22;7826;49.784;9.934;2022-08-21T08:53:32;29.20;99.90
15450;DHT22;7826;49.784;9.934;2022-08-21T08:56:01;30.10;99.90
15450;DHT22;7826;49.784;9.934;2022-08-21T08:58:34;30.40;99.10
15450;DHT22;7826;49.784;9.934;2022-08-21T09:01:06;30.70;94.90
15450;DHT22;7826;49.784;9.934;2022-08-21T09:03:37;30.70;95.80
15450;DHT22;7826;49.784;9.934;2022-08-21T09:06:37;30.70;91.20
15450;DHT22;7826;49.784;9.934;2022-08-21T09:09:31;30.40;77.50
15450;DHT22;7826;49.784;9.934;2022-08-21T09:12:49;30.10;70.90
15450;DHT22;7826;49.784;9.934;2022-08-21T09:20:51;29.10;79.30
15450;DHT22;7826;49.784;9.934;2022-08-21T09:23:47;29.40;75.50
15450;DHT22;7826;49.784;9.934;2022-08-21T09:26:17;29.80;77.10
15450;DHT22;7826;49.784;9.934;2022-08-21T09:28:44;29.90;67.40
15450;DHT22;7826;49.784;9.934;2022-08-21T09:31:23;29.80;70.60
15450;DHT22;7826;49.784;9.934;2022-08-21T09:34:01;29.80;62.70
15450;DHT22;7826;49.784;9.934;2022-08-21T09:36:38;28.90;61.70
15450;DHT22;7826;49.784;9.934;2022-08-21T09:39:06;27.90;68.20
15450;DHT22;7826;49.784;9.934;2022-08-21T09:41:34;27.20;70.80
15450;DHT22;7826;49.784;9.934;2022-08-21T09:44:02;27.20;70.70
15450;DHT22;7826;49.784;9.934;2022-08-21T09:46:29;27.40;72.40
15450;DHT22;7826;49.784;9.934;2022-08-21T09:48:58;27.60;67.90
15450;DHT22;7826;49.784;9.934;2022-08-21T09:51:31;27.90;67.30
15450;DHT22;7826;49.784;9.934;2022-08-21T09:59:44;27.80;57.40
15450;DHT22;7826;49.784;9.934;2022-08-21T10:02:37;27.30;60.30
15450;DHT22;7826;49.784;9.934;2022-08-21T10:05:18;26.90;62.40
15450;DHT22;7826;49.784;9.934;2022-08-21T10:07:45;26.60;65.40
15450;DHT22;7826;49.784;9.934;2022-08-21T10:13:29;26.00;68.10
15450;DHT22;7826;49.784;9.934;2022-08-21T10:23:36;26.50;66.80
15450;DHT22;7826;49.784;9.934;2022-08-21T10:26:09;26.50;64.20
15450;DHT22;7826;49.784;9.934;2022-08-21T10:28:53;26.20;63.90
15450;DHT22;7826;49.784;9.934;2022-08-21T10:31:52;26.20;64.00
15450;DHT22;7826;49.784;9.934;2022-08-21T10:43:30;25.60;63.50
15450;DHT22;7826;49.784;9.934;2022-08-21T10:51:32;25.40;59.00
15450;DHT22;7826;49.784;9.934;2022-08-21T10:54:20;25.30;60.10
15450;DHT22;7826;49.784;9.934;2022-08-21T10:56:51;25.40;59.80
15450;DHT22;7826;49.784;9.934;2022-08-21T11:07:26;25.70;57.60
15450;DHT22;7826;49.784;9.934;2022-08-21T11:09:57;25.90;57.90
15450;DHT22;7826;49.784;9.934;2022-08-21T11:12:46;26.10;58.20
15450;DHT22;7826;49.784;9.934;2022-08-21T11:15:44;26.20;56.80
15450;DHT22;7826;49.784;9.934;2022-08-21T11:18:35;26.10;55.60
15450;DHT22;7826;49.784;9.934;2022-08-21T11:24:05;25.90;56.00
15450;DHT22;7826;49.784;9.934;2022-08-21T11:26:44;25.80;57.90
15450;DHT22;7826;49.784;9.934;2022-08-21T11:29:17;25.70;57.60
15450;DHT22;7826;49.784;9.934;2022-08-21T11:51:15;25.90;55.90
15450;DHT22;7826;49.784;9.934;2022-08-21T11:56:57;26.10;57.00
15450;DHT22;7826;49.784;9.934;2022-08-21T12:02:23;26.20;55.30
15450;DHT22;7826;49.784;9.934;2022-08-21T12:04:56;26.10;54.70
15450;DHT22;7826;49.784;9.934;2022-08-21T12:07:37;25.90;55.90
15450;DHT22;7826;49.784;9.934;2022-08-21T12:10:07;26.00;56.20
15450;DHT22;7826;49.784;9.934;2022-08-21T12:12:36;26.10;55.70
15450;DHT22;7826;49.784;9.934;2022-08-21T12:18:18;26.20;54.60
15450;DHT22;7826;49.784;9.934;2022-08-21T12:23:33;26.30;53.10
15450;DHT22;7826;49.784;9.934;2022-08-21T12:26:11;26.50;53.70
15450;DHT22;7826;49.784;9.934;2022-08-21T12:28:40;26.60;53.00
15450;DHT22;7826;49.784;9.934;2022-08-21T12:31:22;26.70;52.20
15450;DHT22;7826;49.784;9.934;2022-08-21T12:33:58;26.80;49.40
15450;DHT22;7826;49.784;9.934;2022-08-21T12:36:46;26.70;50.00
15450;DHT22;7826;49.784;9.934;2022-08-21T12:39:19;26.70;50.40
15450;DHT22;7826;49.784;9.934;2022-08-21T12:44:45;26.40;49.80
15450;DHT22;7826;49.784;9.934;2022-08-21T12:50:08;26.30;50.90
15450;DHT22;7826;49.784;9.934;2022-08-21T12:52:53;26.20;51.60
15450;DHT22;7826;49.784;9.934;2022-08-21T12:55:28;26.30;50.60
15450;DHT22;7826;49.784;9.934;2022-08-21T12:57:54;26.50;49.80
15450;DHT22;7826;49.784;9.934;2022-08-21T13:00:25;26.70;49.70
15450;DHT22;7826;49.784;9.934;2022-08-21T13:02:54;26.90;49.10
15450;DHT22;7826;49.784;9.934;2022-08-21T13:05:31;27.10;48.80
15450;DHT22;7826;49.784;9.934;2022-08-21T13:07:58;27.30;49.50
15450;DHT22;7826;49.784;9.934;2022-08-21T13:10:28;27.50;48.10
15450;DHT22;7826;49.784;9.934;2022-08-21T13:13:02;27.50;47.50
15450;DHT22;7826;49.784;9.934;2022-08-21T13:15:36;27.70;47.80
15450;DHT22;7826;49.784;9.934;2022-08-21T13:18:04;27.80;46.00
15450;DHT22;7826;49.784;9.934;2022-08-21T13:20:39;27.80;46.10
15450;DHT22;7826;49.784;9.934;2022-08-21T13:23:29;27.80;45.40
15450;DHT22;7826;49.784;9.934;2022-08-21T13:25:56;27.90;45.70
15450;DHT22;7826;49.784;9.934;2022-08-21T13:28:24;28.00;45.80
15450;DHT22;7826;49.784;9.934;2022-08-21T13:30:59;28.00;43.90
15450;DHT22;7826;49.784;9.934;2022-08-21T13:33:30;28.00;44.80
15450;DHT22;7826;49.784;9.934;2022-08-21T13:38:30;28.10;44.70
15450;DHT22;7826;49.784;9.934;2022-08-21T13:43:50;28.00;44.30
15450;DHT22;7826;49.784;9.934;2022-08-21T13:46:18;28.00;43.80
15450;DHT22;7826;49.784;9.934;2022-08-21T13:48:47;28.00;43.70
15450;DHT22;7826;49.784;9.934;2022-08-21T13:51:13;28.00;43.70
15450;DHT22;7826;49.784;9.934;2022-08-21T13:56:29;28.00;43.50
15450;DHT22;7826;49.784;9.934;2022-08-21T13:58:59;28.10;43.50
15450;DHT22;7826;49.784;9.934;2022-08-21T14:01:32;28.10;41.50
15450;DHT22;7826;49.784;9.934;2022-08-21T14:04:08;28.10;41.60
15450;DHT22;7826;49.784;9.934;2022-08-21T14:06:40;28.10;41.10
15450;DHT22;7826;49.784;9.934;2022-08-21T14:09:39;28.10;41.10
15450;DHT22;7826;49.784;9.934;2022-08-21T14:12:37;28.10;41.40
15450;DHT22;7826;49.784;9.934;2022-08-21T14:15:06;28.20;40.90
15450;DHT22;7826;49.784;9.934;2022-08-21T14:17:39;28.20;40.00
15450;DHT22;7826;49.784;9.934;2022-08-21T14:20:10;28.20;40.60
15450;DHT22;7826;49.784;9.934;2022-08-21T14:22:45;28.20;37.70
15450;DHT22;7826;49.784;9.934;2022-08-21T14:25:15;28.20;37.90
15450;DHT22;7826;49.784;9.934;2022-08-21T14:27:54;28.20;37.90
15450;DHT22;7826;49.784;9.934;2022-08-21T14:30:30;28.10;38.80
15450;DHT22;7826;49.784;9.934;2022-08-21T14:32:58;28.00;38.00
15450;DHT22;7826;49.784;9.934;2022-08-21T14:35:25;28.00;38.40
15450;DHT22;7826;49.784;9.934;2022-08-21T14:37:52;28.10;39.50
15450;DHT22;7826;49.784;9.934;2022-08-21T14:40:22;28.20;39.50
15450;DHT22;7826;49.784;9.934;2022-08-21T14:42:49;28.10;39.00
15450;DHT22;7826;49.784;9.934;2022-08-21T14:45:34;28.10;39.20
15450;DHT22;7826;49.784;9.934;2022-08-21T14:48:02;28.00;38.80
15450;DHT22;7826;49.784;9.934;2022-08-21T14:50:28;28.00;38.90
15450;DHT22;7826;49.784;9.934;2022-08-21T14:52:55;28.00;37.70
15450;DHT22;7826;49.784;9.934;2022-08-21T14:55:21;28.00;37.70
15450;DHT22;7826;49.784;9.934;2022-08-21T14:57:49;28.00;38.00
15450;DHT22;7826;49.784;9.934;2022-08-21T15:00:19;28.00;37.40
15450;DHT22;7826;49.784;9.934;2022-08-21T15:02:47;28.00;36.90
15450;DHT22;7826;49.784;9.934;2022-08-21T15:05:14;28.00;36.80
15450;DHT22;7826;49.784;9.934;2022-08-21T15:07:40;27.90;36.80
15450;DHT22;7826;49.784;9.934;2022-08-21T15:10:08;27.90;36.00
15450;DHT22;7826;49.784;9.934;2022-08-21T15:12:35;27.90;36.30
15450;DHT22;7826;49.784;9.934;2022-08-21T15:15:02;27.80;37.80
15450;DHT22;7826;49.784;9.934;2022-08-21T15:17:30;27.80;38.20
15450;DHT22;7826;49.784;9.934;2022-08-21T15:19:56;27.70;37.80
15450;DHT22;7826;49.784;9.934;2022-08-21T15:22:23;27.60;37.70
15450;DHT22;7826;49.784;9.934;2022-08-21T15:24:49;27.50;37.70
15450;DHT22;7826;49.784;9.934;2022-08-21T15:27:16;27.40;38.50
15450;DHT22;7826;49.784;9.934;2022-08-21T15:29:44;27.30;38.10
15450;DHT22;7826;49.784;9.934;2022-08-21T15:32:23;27.30;38.60
15450;DHT22;7826;49.784;9.934;2022-08-21T15:34:54;27.40;39.90
15450;DHT22;7826;49.784;9.934;2022-08-21T15:37:20;27.40;39.60
15450;DHT22;7826;49.784;9.934;2022-08-21T15:39:47;27.40;39.80
15450;DHT22;7826;49.784;9.934;2022-08-21T15:42:14;27.40;39.70
15450;DHT22;7826;49.784;9.934;2022-08-21T15:44:41;27.50;39.50
15450;DHT22;7826;49.784;9.934;2022-08-21T15:47:21;27.50;39.90
15450;DHT22;7826;49.784;9.934;2022-08-21T15:49:47;27.40;39.30
15450;DHT22;7826;49.784;9.934;2022-08-21T15:52:17;27.40;39.00
15450;DHT22;7826;49.784;9.934;2022-08-21T15:54:43;27.30;38.80
15450;DHT22;7826;49.784;9.934;2022-08-21T15:57:13;27.20;37.70
15450;DHT22;7826;49.784;9.934;2022-08-21T15:59:42;27.20;38.20
15450;DHT22;7826;49.784;9.934;2022-08-21T16:02:30;27.10;37.90
15450;DHT22;7826;49.784;9.934;2022-08-21T16:04:57;27.00;37.70
15450;DHT22;7826;49.784;9.934;2022-08-21T16:07:23;27.00;38.80
15450;DHT22;7826;49.784;9.934;2022-08-21T16:09:50;27.00;39.50
15450;DHT22;7826;49.784;9.934;2022-08-21T16:12:27;27.10;39.50
15450;DHT22;7826;49.784;9.934;2022-08-21T16:14:54;27.00;40.40
15450;DHT22;7826;49.784;9.934;2022-08-21T16:17:27;27.00;40.70
15450;DHT22;7826;49.784;9.934;2022-08-21T16:19:54;27.00;40.30
15450;DHT22;7826;49.784;9.934;2022-08-21T16:22:21;26.90;39.70
15450;DHT22;7826;49.784;9.934;2022-08-21T16:24:47;26.80;39.80
15450;DHT22;7826;49.784;9.934;2022-08-21T16:27:13;26.80;40.60
15450;DHT22;7826;49.784;9.934;2022-08-21T16:29:42;26.80;40.60
15450;DHT22;7826;49.784;9.934;2022-08-21T16:32:09;26.80;40.50
15450;DHT22;7826;49.784;9.934;2022-08-21T16:34:35;26.70;40.60
15450;DHT22;7826;49.784;9.934;2022-08-21T16:37:02;26.70;40.20
15450;DHT22;7826;49.784;9.934;2022-08-21T16:39:28;26.70;39.90
15450;DHT22;7826;49.784;9.934;2022-08-21T16:41:54;26.60;40.70
15450;DHT22;7826;49.784;9.934;2022-08-21T16:44:21;26.60;41.00
15450;DHT22;7826;49.784;9.934;2022-08-21T16:46:48;26.60;40.40
15450;DHT22;7826;49.784;9.934;2022-08-21T16:49:15;26.50;41.50
15450;DHT22;7826;49.784;9.934;2022-08-21T16:51:41;26.40;41.70
15450;DHT22;7826;49.784;9.934;2022-08-21T16:54:09;26.40;42.30
15450;DHT22;7826;49.784;9.934;2022-08-21T16:56:36;26.40;41.80
15450;DHT22;7826;49.784;9.934;2022-08-21T16:59:04;26.40;41.80
15450;DHT22;7826;49.784;9.934;2022-08-21T17:01:32;26.30;41.90
15450;DHT22;7826;49.784;9.934;2022-08-21T17:03:59;26.20;42.40
15450;DHT22;7826;49.784;9.934;2022-08-21T17:06:26;26.20;42.60
15450;DHT22;7826;49.784;9.934;2022-08-21T17:08:52;26.10;42.50
15450;DHT22;7826;49.784;9.934;2022-08-21T17:11:40;26.10;43.10
15450;DHT22;7826;49.784;9.934;2022-08-21T17:14:16;26.00;43.40
15450;DHT22;7826;49.784;9.934;2022-08-21T17:16:46;26.00;43.50
15450;DHT22;7826;49.784;9.934;2022-08-21T17:19:13;26.00;43.10
15450;DHT22;7826;49.784;9.934;2022-08-21T17:21:40;26.00;42.70
15450;DHT22;7826;49.784;9.934;2022-08-21T17:24:06;25.90;43.50
15450;DHT22;7826;49.784;9.934;2022-08-21T17:26:33;25.80;44.20
15450;DHT22;7826;49.784;9.934;2022-08-21T17:28:59;25.80;44.10
15450;DHT22;7826;49.784;9.934;2022-08-21T17:31:31;25.70;43.10
15450;DHT22;7826;49.784;9.934;2022-08-21T17:33:57;25.70;43.10